Stockton, CA (95205)

6:11 PM PDT on October 31, 2014 (GMT -0700)
Garden Acres | Change Station
CLOSE
Current Station
Personal Weather Station
Location: Stockton, CA
Elevation: 30 ft
Nearby Weather Stations

Elev 30 ft 37.96 °N, 121.24 °W | Updated 7 seconds ago

Overcast
Overcast
56.3 °F
Feels Like 56.3 °F
N
2.2
Wind Variable Wind from West
Gusts 4.5 mph

Today
High -- | Low -- °F
--% Chance of Precip.
Yesterday
High -- | Low -- °F
Precip. -- in
7:29 AM 6:06 PM
First Quarter, 61% visible
Pressure 29.76 in
Visibility 10.0 miles
Clouds Scattered Clouds 3000 ft
Overcast 7000 ft
Dew Point 56 °F
Humidity 99%
Rainfall 0.20 in
Snow Depth Not available.
UV 0 out of 12
Pollen 1.50 out of 12
Air Quality Not available.
Flu Activity Not available.
METAR KSCK 010055Z 29005KT 10SM -RA SCT030 OVC070 14/12 A2976 RMK AO2 RAE25B45 SLP078 P0000 T01440122

More Conditions Fewer Conditions

Pressure 29.76 in
Visibility 10.0 miles
Clouds Scattered Clouds 3000 ft
Overcast 7000 ft
Dew Point 56 °F
Humidity 99%
Rainfall 0.20 in
Snow Depth Not available.
UV 0 out of 12
Pollen 1.50 out of 12
Air Quality Not available.
Flu Activity Not available.
METAR KSCK 010055Z 29005KT 10SM -RA SCT030 OVC070 14/12 A2976 RMK AO2 RAE25B45 SLP078 P0000 T01440122

More Conditions Fewer Conditions

Nowcast | as of 6:01 PM PDT on October 31, 2014

An area of moderate to heavy rain will be moving eastward over Stanislaus County and into the southern motherlode through 8 PM...and after 8 PM into the higher elevations of Tuolumne County. Local ponding of water on roads is possible as the area of heavier rainfall moves over Interstate 5 around Patterson and Newman...and from Modesto to Turlock along Highway 99 through 7 PM.

×

10-Day Weather Forecast

Almanac

Astronomy

Oct. 31, 2014 Rise Set
Actual Time
Civil Twilight
Nautical Twilight
Astronomical Twilight
Moon
Length of Visible Light
Length of Day
Tomorrow will be .
, % of the Moon is Illuminated

Today's Extremes

State Highs State Lows

Community

WunderPhotos

Upload Photos

1,766,798 photos uploaded!

WunderBlogs® & News

Nearby

Air Quality

  Air Quality AQ Index Pollutant
Not available.

Snow Depth

Station Depth Elevation

Earthquake Activity

City Distance Mag. Time & Date
Minimum magnitude displayed is 2.5.

Coastal Water Temperatures

Place Temperature

Nearby Weather Stations